Terminal Aerodrome Forecast
Issued by NWS

Home | Current Version | Previous Version | Text Only | Print | Product List | Glossary On
Versions: 1 2 3 4 5 6 7 8 9 10 11 12 13 14 15 16 17 18 19 20 21 22 23 24 25
911
FTUS46 KEKA 290343 AAA
TAFCEC
TAF AMD
KCEC 290343Z 2904/2924 VRB03KT P6SM SCT008 OVC010
      TEMPO 2905/2907 OVC007
     FM290700 VRB03KT 3SM -DZ BR OVC005
     FM291700 21007KT P6SM SCT004 BKN012
     FM292200 22008KT P6SM SCT012=

USA.gov is the U.S. government's official web portal to all federal, state and local government web resources and services.